Terminal Aerodrome Forecast
Issued by NWS Quad Cities IA IL

Home | Current Version | Previous Version | Text Only | Print | Product List | Glossary On
Versions: 1 2 3 4 5 6 7 8 9 10 11 12 13 14 15
938
FTUS43 KDVN 231138
TAFDBQ
TAF
KDBQ 231138Z 2312/2412 15007KT P6SM FEW250
     FM231500 18013G21KT P6SM SCT250
     FM240000 18007KT P6SM BKN200
     FM240300 18009KT P6SM VCSH BKN060=

USA.gov is the U.S. government's official web portal to all federal, state and local government web resources and services.